createdAt,value
2024-04-30T00:00:02.049Z,8.25
2024-04-30T00:01:03.744Z,9.75
2024-04-30T00:02:07.897Z,8.75
2024-04-30T00:03:09.398Z,9.50
2024-04-30T00:04:12.128Z,9.25
2024-04-30T00:05:13.893Z,9.00
2024-04-30T00:06:18.130Z,10.00
2024-04-30T00:07:19.704Z,9.00
2024-04-30T00:08:21.286Z,10.00
2024-04-30T00:09:25.427Z,9.00
2024-04-30T00:10:29.732Z,10.00
2024-04-30T00:11:31.346Z,9.00
2024-04-30T00:12:33.018Z,9.75
2024-04-30T00:13:37.218Z,10.00
2024-04-30T00:14:38.882Z,9.50
2024-04-30T00:15:40.563Z,9.50
2024-04-30T00:16:42.247Z,9.50
2024-04-30T00:17:46.507Z,10.00
2024-04-30T00:18:48.158Z,9.75
2024-04-30T00:19:49.822Z,10.00
2024-04-30T00:20:51.487Z,9.75
2024-04-30T00:21:55.705Z,7.00
2024-04-30T00:22:57.351Z,9.00
2024-04-30T00:23:58.881Z,9.75
2024-04-30T00:25:03.137Z,9.00
2024-04-30T00:26:07.360Z,7.75
2024-04-30T00:27:08.905Z,9.50
2024-04-30T00:28:10.485Z,8.75
2024-04-30T00:29:12.081Z,8.75
2024-04-30T00:30:16.393Z,9.00
2024-04-30T00:31:18.137Z,7.75
2024-04-30T00:32:19.764Z,9.00
2024-04-30T00:33:21.389Z,10.00
2024-04-30T00:34:25.567Z,9.00
2024-04-30T00:35:27.157Z,9.25
2024-04-30T00:36:28.773Z,7.75
2024-04-30T00:37:30.397Z,9.00
2024-04-30T00:38:34.543Z,8.00
2024-04-30T00:39:36.111Z,7.75
2024-04-30T00:40:40.346Z,9.00
2024-04-30T00:41:42.042Z,9.25
2024-04-30T00:42:46.192Z,7.75
2024-04-30T00:43:47.737Z,8.75
2024-04-30T00:44:49.359Z,8.75
2024-04-30T00:45:53.515Z,8.75
2024-04-30T00:46:55.150Z,12.00
2024-04-30T00:47:56.804Z,9.75
2024-04-30T00:48:59.502Z,10.00
2024-04-30T00:50:03.817Z,10.00
2024-04-30T00:51:05.789Z,13.00
2024-04-30T00:52:07.473Z,10.50
2024-04-30T00:53:09.036Z,10.00
2024-04-30T00:54:13.187Z,10.50
2024-04-30T00:55:14.887Z,7.75
2024-04-30T00:56:19.308Z,7.75
2024-04-30T00:57:20.999Z,9.25
2024-04-30T00:58:25.220Z,11.50
2024-04-30T00:59:26.796Z,9.00
2024-04-30T01:00:29.092Z,9.75
2024-04-30T01:01:30.702Z,9.00
2024-04-30T01:02:35.059Z,7.75
2024-04-30T01:03:36.703Z,9.00
2024-04-30T01:04:38.878Z,7.75
2024-04-30T01:05:40.508Z,8.50
2024-04-30T01:06:44.689Z,8.75
2024-04-30T01:07:46.474Z,8.25
2024-04-30T01:08:48.035Z,9.00
2024-04-30T01:09:49.621Z,9.00
2024-04-30T01:10:53.765Z,8.00
2024-04-30T01:11:58.060Z,9.00
2024-04-30T01:12:59.894Z,8.25
2024-04-30T01:14:04.089Z,8.00
2024-04-30T01:15:06.121Z,9.00
2024-04-30T01:16:08.063Z,8.00
2024-04-30T01:17:12.287Z,8.75
2024-04-30T01:18:13.923Z,7.50
2024-04-30T01:19:15.478Z,9.00
2024-04-30T01:20:19.642Z,9.75
2024-04-30T01:21:21.190Z,9.00
2024-04-30T01:22:23.922Z,6.50
2024-04-30T01:23:28.174Z,8.50
2024-04-30T01:24:32.372Z,8.25
2024-04-30T01:25:33.988Z,10.00
2024-04-30T01:26:35.627Z,8.00
2024-04-30T01:27:37.225Z,8.50
2024-04-30T01:28:41.533Z,8.25
2024-04-30T01:29:43.113Z,9.00
2024-04-30T01:30:45.561Z,8.00
2024-04-30T01:31:47.121Z,9.00
2024-04-30T01:32:52.040Z,8.00
2024-04-30T01:33:53.759Z,7.50
2024-04-30T01:34:55.312Z,8.75
2024-04-30T01:35:59.456Z,8.00
2024-04-30T01:37:01.099Z,8.50
2024-04-30T01:38:02.699Z,9.00
2024-04-30T01:39:06.917Z,8.50
2024-04-30T01:40:11.756Z,8.00
2024-04-30T01:41:13.320Z,8.00
2024-04-30T01:42:14.958Z,9.50
2024-04-30T01:43:16.553Z,12.50
2024-04-30T01:44:20.813Z,9.00
2024-04-30T01:45:22.374Z,9.00
2024-04-30T01:46:23.985Z,9.25
2024-04-30T01:47:25.791Z,10.00
2024-04-30T01:48:30.017Z,9.50
2024-04-30T01:49:31.769Z,9.00
2024-04-30T01:50:33.357Z,11.00
2024-04-30T01:51:37.502Z,9.50
2024-04-30T01:52:40.578Z,8.75
2024-04-30T01:53:43.365Z,10.50
2024-04-30T01:54:47.596Z,12.00
2024-04-30T01:55:51.746Z,12.00
2024-04-30T01:56:53.278Z,9.00
2024-04-30T01:57:54.818Z,9.25
2024-04-30T01:58:56.372Z,8.75
2024-04-30T02:00:00.672Z,10.00
2024-04-30T02:01:02.359Z,9.00
2024-04-30T02:02:04.174Z,9.00
2024-04-30T02:03:08.492Z,9.25
2024-04-30T02:04:10.135Z,8.50
2024-04-30T02:05:17.035Z,8.00
2024-04-30T02:06:28.246Z,8.00
2024-04-30T02:07:29.881Z,8.50
2024-04-30T02:08:31.474Z,7.75
2024-04-30T02:09:33.010Z,10.75
2024-04-30T02:10:39.867Z,7.00
2024-04-30T02:11:41.451Z,6.00
2024-04-30T02:12:43.012Z,8.00
2024-04-30T02:13:44.562Z,9.75
2024-04-30T02:14:46.090Z,7.25
2024-04-30T02:15:50.279Z,9.00
2024-04-30T02:16:51.866Z,9.00
2024-04-30T02:17:53.473Z,9.00
2024-04-30T02:18:55.064Z,9.00
2024-04-30T02:19:59.202Z,9.00
2024-04-30T02:21:00.847Z,7.25
2024-04-30T02:22:02.394Z,8.75
2024-04-30T02:23:06.732Z,8.00
2024-04-30T02:24:08.437Z,7.50
2024-04-30T02:25:10.048Z,8.00
2024-04-30T02:26:17.069Z,10.00
2024-04-30T02:27:18.745Z,9.00
2024-04-30T02:28:20.337Z,7.75
2024-04-30T02:29:22.515Z,8.00
2024-04-30T02:30:39.079Z,9.00
2024-04-30T02:31:59.493Z,9.00
2024-04-30T02:33:19.908Z,8.00
2024-04-30T02:34:26.848Z,9.25
2024-04-30T02:35:28.644Z,8.75
2024-04-30T02:36:30.242Z,9.00
2024-04-30T02:37:34.578Z,9.00
2024-04-30T02:38:36.212Z,8.75
2024-04-30T02:39:40.361Z,9.00
2024-04-30T02:40:41.972Z,9.00
2024-04-30T02:41:46.183Z,8.75
2024-04-30T02:42:50.440Z,10.00
2024-04-30T02:43:52.017Z,9.50
2024-04-30T02:44:53.617Z,8.00
2024-04-30T02:45:55.176Z,8.75
2024-04-30T02:47:00.339Z,8.00
2024-04-30T02:48:02.042Z,9.50
2024-04-30T02:49:04.492Z,8.50
2024-04-30T02:50:06.426Z,10.50
2024-04-30T02:51:10.647Z,10.75
2024-04-30T02:52:12.237Z,9.00
2024-04-30T02:53:13.854Z,11.00
2024-04-30T02:54:15.396Z,8.25
2024-04-30T02:55:19.558Z,11.50
2024-04-30T02:56:21.173Z,9.50
2024-04-30T02:57:25.340Z,8.25
2024-04-30T02:58:26.997Z,8.00
2024-04-30T02:59:31.185Z,8.50
2024-04-30T03:00:33.025Z,8.00
2024-04-30T03:01:34.679Z,8.00
2024-04-30T03:02:36.386Z,8.00
2024-04-30T03:03:40.653Z,8.00
2024-04-30T03:04:43.849Z,6.50
2024-04-30T03:05:45.435Z,8.00
2024-04-30T03:06:46.999Z,6.50
2024-04-30T03:07:51.139Z,6.00
2024-04-30T03:08:52.819Z,9.00
2024-04-30T03:09:54.374Z,8.00
2024-04-30T03:10:55.950Z,7.50
2024-04-30T03:12:00.144Z,8.25
2024-04-30T03:13:04.578Z,11.25
2024-04-30T03:14:06.539Z,11.50
2024-04-30T03:15:08.294Z,12.00
2024-04-30T03:16:12.445Z,9.00
2024-04-30T03:17:14.650Z,12.50
2024-04-30T03:18:16.250Z,8.00
2024-04-30T03:19:17.901Z,9.00
2024-04-30T03:20:22.087Z,9.50
2024-04-30T03:21:23.621Z,8.00
2024-04-30T03:22:25.234Z,10.00
2024-04-30T03:23:26.798Z,10.25
2024-04-30T03:24:31.067Z,11.25
2024-04-30T03:25:32.748Z,13.00
2024-04-30T03:26:39.707Z,9.50
2024-04-30T03:27:41.295Z,12.00
2024-04-30T03:28:48.273Z,12.75
2024-04-30T03:29:49.915Z,11.75
2024-04-30T03:30:53.246Z,10.00
2024-04-30T03:31:57.406Z,9.50
2024-04-30T03:32:59.073Z,12.00
2024-04-30T03:34:00.750Z,11.50
2024-04-30T03:35:02.441Z,12.00
2024-04-30T03:36:06.911Z,12.25
2024-04-30T03:37:11.086Z,12.00
2024-04-30T03:38:12.715Z,11.75
2024-04-30T03:39:16.846Z,12.00
2024-04-30T03:40:18.456Z,15.75
2024-04-30T03:41:22.589Z,12.00
2024-04-30T03:42:24.405Z,11.00
2024-04-30T03:43:31.653Z,12.25
2024-04-30T03:44:35.899Z,11.50
2024-04-30T03:45:38.349Z,11.50
2024-04-30T03:46:42.519Z,11.25
2024-04-30T03:47:44.207Z,10.25
2024-04-30T03:48:45.812Z,9.25
2024-04-30T03:49:49.964Z,10.75
2024-04-30T03:50:55.175Z,9.00
2024-04-30T03:51:56.777Z,10.75
2024-04-30T03:52:58.322Z,11.25
2024-04-30T03:54:02.519Z,9.50
2024-04-30T03:55:04.470Z,10.00
2024-04-30T03:56:06.333Z,11.00
2024-04-30T03:57:10.456Z,9.50
2024-04-30T03:58:12.092Z,10.50
2024-04-30T03:59:13.640Z,9.50
2024-04-30T04:00:17.832Z,10.00
2024-04-30T04:01:22.058Z,11.50
2024-04-30T04:02:23.638Z,12.00
2024-04-30T04:03:25.246Z,12.50
2024-04-30T04:04:26.867Z,10.25
2024-04-30T04:05:31.055Z,9.50
2024-04-30T04:06:32.674Z,11.25
2024-04-30T04:07:34.343Z,10.75
2024-04-30T04:08:35.954Z,9.00
2024-04-30T04:09:40.136Z,9.50
2024-04-30T04:10:42.834Z,8.25
2024-04-30T04:12:02.323Z,9.00
2024-04-30T04:13:22.870Z,8.00
2024-04-30T04:14:46.562Z,8.00
2024-04-30T04:15:54.693Z,8.00
2024-04-30T04:16:56.368Z,13.25
2024-04-30T04:17:57.988Z,12.00
2024-04-30T04:19:02.148Z,12.00
2024-04-30T04:20:03.994Z,10.75
2024-04-30T04:21:08.150Z,13.00
2024-04-30T04:22:09.748Z,14.25
2024-04-30T04:23:13.873Z,13.75
2024-04-30T04:24:15.396Z,14.25
2024-04-30T04:25:16.952Z,14.50
2024-04-30T04:26:21.075Z,16.00
2024-04-30T04:27:22.623Z,12.50
2024-04-30T04:28:24.167Z,13.00
2024-04-30T04:29:25.712Z,16.75
2024-04-30T04:30:29.816Z,12.50
2024-04-30T04:31:34.083Z,14.75
2024-04-30T04:32:35.719Z,14.50
2024-04-30T04:33:37.265Z,14.75
2024-04-30T04:34:41.417Z,12.00
2024-04-30T04:35:42.957Z,12.50
2024-04-30T04:36:44.915Z,14.50
2024-04-30T04:37:49.167Z,12.00
2024-04-30T04:38:50.723Z,11.50
2024-04-30T04:39:52.248Z,12.25
2024-04-30T04:40:53.756Z,10.25
2024-04-30T04:41:57.861Z,10.75
2024-04-30T04:42:59.791Z,10.00
2024-04-30T04:44:01.360Z,11.50
2024-04-30T04:45:05.466Z,10.25
2024-04-30T04:46:07.009Z,11.50
2024-04-30T04:47:11.231Z,11.00
2024-04-30T04:48:12.912Z,11.50
2024-04-30T04:49:17.158Z,8.00
2024-04-30T04:50:18.721Z,10.25
2024-04-30T04:51:20.284Z,9.25
2024-04-30T04:52:24.394Z,12.00
2024-04-30T04:53:26.013Z,11.50
2024-04-30T04:54:27.566Z,10.00
2024-04-30T04:55:29.140Z,11.75
2024-04-30T04:56:33.267Z,11.50
2024-04-30T04:57:34.809Z,10.75
2024-04-30T04:58:36.443Z,9.00
2024-04-30T04:59:40.632Z,8.00
2024-04-30T05:00:42.202Z,8.00
2024-04-30T05:01:43.875Z,9.00
2024-04-30T05:02:50.703Z,8.75
2024-04-30T05:03:52.351Z,10.00
2024-04-30T05:04:53.949Z,9.00
2024-04-30T05:05:55.490Z,8.75
2024-04-30T05:07:01.890Z,9.50
2024-04-30T05:08:04.233Z,10.50
2024-04-30T05:09:05.955Z,10.00
2024-04-30T05:10:10.207Z,10.50
2024-04-30T05:11:12.128Z,10.00
2024-04-30T05:12:13.681Z,9.00
2024-04-30T05:13:15.205Z,9.50
2024-04-30T05:14:19.370Z,10.25
2024-04-30T05:15:20.893Z,11.75
2024-04-30T05:16:22.444Z,15.75
2024-04-30T05:17:24.177Z,16.50
2024-04-30T05:18:30.922Z,14.50
2024-04-30T05:19:32.664Z,13.00
2024-04-30T05:20:34.285Z,15.25
2024-04-30T05:21:38.386Z,15.25
2024-04-30T05:22:40.017Z,14.75
2024-04-30T05:23:41.576Z,17.00
2024-04-30T05:24:43.118Z,15.00
2024-04-30T05:25:47.260Z,17.00
2024-04-30T05:26:48.800Z,16.25
2024-04-30T05:27:50.308Z,14.25
2024-04-30T05:28:54.425Z,17.00
2024-04-30T05:29:58.081Z,18.75
2024-04-30T05:30:59.861Z,17.00
2024-04-30T05:32:03.956Z,16.00
2024-04-30T05:33:05.800Z,16.25
2024-04-30T05:34:09.998Z,17.00
2024-04-30T05:35:11.745Z,16.25
2024-04-30T05:36:15.948Z,15.75
2024-04-30T05:37:17.552Z,16.00
2024-04-30T05:38:19.118Z,19.00
2024-04-30T05:39:20.620Z,17.00
2024-04-30T05:40:24.775Z,17.25
2024-04-30T05:41:26.361Z,18.50
2024-04-30T05:42:27.889Z,21.00
2024-04-30T05:43:29.499Z,18.75
2024-04-30T05:44:33.635Z,19.25
2024-04-30T05:45:35.300Z,20.00
2024-04-30T05:46:36.910Z,18.75
2024-04-30T05:47:38.525Z,21.00
2024-04-30T05:48:42.677Z,17.00
2024-04-30T05:49:46.833Z,20.25
2024-04-30T05:50:48.458Z,21.25
2024-04-30T05:51:52.638Z,19.50
2024-04-30T05:52:54.358Z,19.75
2024-04-30T05:53:56.411Z,21.25
2024-04-30T05:54:58.158Z,23.75
2024-04-30T05:56:02.459Z,20.00
2024-04-30T05:57:04.255Z,19.75
2024-04-30T05:58:05.800Z,23.25
2024-04-30T05:59:07.410Z,22.50
2024-04-30T06:00:11.761Z,20.50
2024-04-30T06:01:13.519Z,22.25
2024-04-30T06:02:15.096Z,21.75
2024-04-30T06:03:16.676Z,19.50
2024-04-30T06:04:20.956Z,16.50
2024-04-30T06:05:25.137Z,16.75
2024-04-30T06:06:26.953Z,15.75
2024-04-30T06:07:31.161Z,18.00
2024-04-30T06:08:32.787Z,18.25
2024-04-30T06:09:34.338Z,18.50
2024-04-30T06:10:35.922Z,21.00
2024-04-30T06:11:40.160Z,18.00
2024-04-30T06:12:41.693Z,16.75
2024-04-30T06:13:44.861Z,20.75
2024-04-30T06:14:49.024Z,16.50
2024-04-30T06:15:50.535Z,18.00
2024-04-30T06:16:52.169Z,15.75
2024-04-30T06:17:57.346Z,16.50
2024-04-30T06:18:59.079Z,16.50
2024-04-30T06:20:00.752Z,17.00
2024-04-30T06:21:05.510Z,15.50
2024-04-30T06:22:09.719Z,14.00
2024-04-30T06:23:12.372Z,15.00
2024-04-30T06:24:13.917Z,15.75
2024-04-30T06:25:15.491Z,16.00
2024-04-30T06:26:19.603Z,14.25
2024-04-30T06:27:21.209Z,14.00
2024-04-30T06:28:22.842Z,18.00
2024-04-30T06:29:24.399Z,17.25
2024-04-30T06:30:28.574Z,15.00
2024-04-30T06:31:30.161Z,16.50
2024-04-30T06:32:31.830Z,13.75
2024-04-30T06:33:36.092Z,12.00
2024-04-30T06:34:39.300Z,11.00
2024-04-30T06:35:42.034Z,11.00
2024-04-30T06:36:46.353Z,13.00
2024-04-30T06:37:55.961Z,13.50
2024-04-30T06:38:57.559Z,11.75
2024-04-30T06:39:59.229Z,13.00
2024-04-30T06:41:03.383Z,15.25
2024-04-30T06:42:05.369Z,13.25
2024-04-30T06:43:07.274Z,14.00
2024-04-30T06:44:08.852Z,13.25
2024-04-30T06:45:12.996Z,12.50
2024-04-30T06:46:14.582Z,14.25
2024-04-30T06:47:16.170Z,14.75
2024-04-30T06:48:17.825Z,15.75
2024-04-30T06:49:24.128Z,15.00
2024-04-30T06:50:27.261Z,17.00
2024-04-30T06:51:28.825Z,15.00
2024-04-30T06:52:35.680Z,16.00
2024-04-30T06:53:37.369Z,15.00
2024-04-30T06:54:38.938Z,15.25
2024-04-30T06:55:43.208Z,14.75
2024-04-30T06:56:44.833Z,16.00
2024-04-30T06:57:46.496Z,14.50
2024-04-30T06:58:48.711Z,13.25
2024-04-30T06:59:52.920Z,13.25
2024-04-30T07:00:54.496Z,14.25
2024-04-30T07:01:56.065Z,15.50
2024-04-30T07:02:57.654Z,14.75
2024-04-30T07:04:01.964Z,14.75
2024-04-30T07:05:03.951Z,15.25
2024-04-30T07:06:06.385Z,15.50
2024-04-30T07:07:10.564Z,14.00
2024-04-30T07:08:14.760Z,13.00
2024-04-30T07:09:16.394Z,13.00
2024-04-30T07:10:18.006Z,15.00
2024-04-30T07:11:22.233Z,14.50
2024-04-30T07:12:23.791Z,16.75
2024-04-30T07:13:25.410Z,14.00
2024-04-30T07:14:29.790Z,16.50
2024-04-30T07:15:31.346Z,15.75
2024-04-30T07:16:39.678Z,14.25
2024-04-30T07:17:43.091Z,15.75
2024-04-30T07:18:47.340Z,16.25
2024-04-30T07:19:51.418Z,14.25
2024-04-30T07:20:53.334Z,16.25
2024-04-30T07:21:54.925Z,17.75
2024-04-30T07:22:59.103Z,18.25
2024-04-30T07:24:03.327Z,18.00
2024-04-30T07:25:05.621Z,19.25
2024-04-30T07:26:08.113Z,18.50
2024-04-30T07:27:12.324Z,19.00
2024-04-30T07:28:13.961Z,19.00
2024-04-30T07:29:15.572Z,17.00
2024-04-30T07:30:19.797Z,18.00
2024-04-30T07:31:21.380Z,15.75
2024-04-30T07:32:23.119Z,17.00
2024-04-30T07:33:24.864Z,19.00
2024-04-30T07:34:26.631Z,17.50
2024-04-30T07:35:31.600Z,14.75
2024-04-30T07:36:33.157Z,16.75
2024-04-30T07:37:36.188Z,16.25
2024-04-30T07:38:37.885Z,17.75
2024-04-30T07:39:44.875Z,16.50
2024-04-30T07:40:46.502Z,17.50
2024-04-30T07:41:48.123Z,18.75
2024-04-30T07:42:49.706Z,18.00
2024-04-30T07:43:53.877Z,20.00
2024-04-30T07:44:57.563Z,18.75
2024-04-30T07:45:59.169Z,18.00
2024-04-30T07:47:03.303Z,19.25
2024-04-30T07:48:05.277Z,19.75
2024-04-30T07:49:06.937Z,19.25
2024-04-30T07:50:11.098Z,18.25
2024-04-30T07:51:12.733Z,15.75
2024-04-30T07:52:18.252Z,18.25
2024-04-30T07:53:19.800Z,15.25
2024-04-30T07:54:23.934Z,20.00
2024-04-30T07:55:28.109Z,19.50
2024-04-30T07:56:29.737Z,19.25
2024-04-30T07:57:33.876Z,17.50
2024-04-30T07:58:35.482Z,16.25
2024-04-30T07:59:37.066Z,18.25
2024-04-30T08:00:38.691Z,16.75
2024-04-30T08:01:42.988Z,14.75
2024-04-30T08:02:46.253Z,13.00
2024-04-30T08:03:48.225Z,15.50
2024-04-30T08:04:49.962Z,12.25
2024-04-30T08:05:56.343Z,11.00
2024-04-30T08:07:00.064Z,16.00
2024-04-30T08:08:01.639Z,11.50
2024-04-30T08:09:05.808Z,10.00
2024-04-30T08:10:07.761Z,11.50
2024-04-30T08:11:12.119Z,10.50
2024-04-30T08:12:13.892Z,12.50
2024-04-30T08:13:18.054Z,14.00
2024-04-30T08:14:19.614Z,13.00
2024-04-30T08:15:21.402Z,12.00
2024-04-30T08:16:25.702Z,13.75
2024-04-30T08:17:27.588Z,10.00
2024-04-30T08:18:29.167Z,11.25
2024-04-30T08:19:33.363Z,9.75
2024-04-30T08:20:34.972Z,14.25
2024-04-30T08:21:36.527Z,14.50
2024-04-30T08:22:40.742Z,14.00
2024-04-30T08:23:42.410Z,14.00
2024-04-30T08:24:43.967Z,10.00
2024-04-30T08:25:45.574Z,10.00
2024-04-30T08:26:52.384Z,6.50
2024-04-30T08:27:53.982Z,7.00
2024-04-30T08:28:55.639Z,7.00
2024-04-30T08:29:57.691Z,7.00
2024-04-30T08:31:02.296Z,8.75
2024-04-30T08:32:04.638Z,7.75
2024-04-30T08:33:06.324Z,6.00
2024-04-30T08:34:10.890Z,11.00
2024-04-30T08:35:12.504Z,7.00
2024-04-30T08:36:14.067Z,6.50
2024-04-30T08:37:18.337Z,6.25
2024-04-30T08:38:19.980Z,7.75
2024-04-30T08:39:21.839Z,8.00
2024-04-30T08:40:23.579Z,6.75
2024-04-30T08:41:27.816Z,7.25
2024-04-30T08:42:31.973Z,6.00
2024-04-30T08:43:33.608Z,8.00
2024-04-30T08:44:37.867Z,6.00
2024-04-30T08:45:40.051Z,6.50
2024-04-30T08:46:41.723Z,6.75
2024-04-30T08:47:43.574Z,7.00
2024-04-30T08:48:47.819Z,12.00
2024-04-30T08:49:54.736Z,9.25
2024-04-30T08:51:01.095Z,7.75
2024-04-30T08:52:02.785Z,8.00
2024-04-30T08:53:07.140Z,11.50
2024-04-30T08:54:09.860Z,8.50
2024-04-30T08:55:12.200Z,7.00
2024-04-30T08:56:17.076Z,8.00
2024-04-30T08:57:21.426Z,8.25
2024-04-30T08:58:25.613Z,7.25
2024-04-30T08:59:27.283Z,7.00
2024-04-30T09:00:31.516Z,8.75
2024-04-30T09:01:33.164Z,7.75
2024-04-30T09:02:35.189Z,7.50
2024-04-30T09:03:37.017Z,8.00
2024-04-30T09:04:41.523Z,8.50
2024-04-30T09:05:43.443Z,7.00
2024-04-30T09:06:45.019Z,7.50
2024-04-30T09:07:49.355Z,7.00
2024-04-30T09:08:50.919Z,8.00
2024-04-30T09:09:55.956Z,8.50
2024-04-30T09:11:00.202Z,6.25
2024-04-30T09:12:01.953Z,8.00
2024-04-30T09:13:03.737Z,6.50
2024-04-30T09:14:10.515Z,8.00
2024-04-30T09:15:16.539Z,8.00
2024-04-30T09:16:18.159Z,8.50
2024-04-30T09:17:25.635Z,8.50
2024-04-30T09:18:27.343Z,7.75
2024-04-30T09:19:30.149Z,7.00
2024-04-30T09:20:34.411Z,7.25
2024-04-30T09:21:35.952Z,7.00
2024-04-30T09:22:47.512Z,6.25
2024-04-30T09:23:51.637Z,8.00
2024-04-30T09:24:53.980Z,8.00
2024-04-30T09:25:55.844Z,7.50
2024-04-30T09:27:00.024Z,7.00
2024-04-30T09:28:01.653Z,8.00
2024-04-30T09:29:03.274Z,7.50
2024-04-30T09:30:14.094Z,6.00
2024-04-30T09:31:18.292Z,6.50
2024-04-30T09:32:22.374Z,9.00
2024-04-30T09:33:24.264Z,7.00
2024-04-30T09:34:28.544Z,7.25
2024-04-30T09:35:30.907Z,6.00
2024-04-30T09:36:35.437Z,7.00
2024-04-30T09:37:39.678Z,7.00
2024-04-30T09:38:41.375Z,6.25
2024-04-30T09:39:42.928Z,7.00
2024-04-30T09:40:47.102Z,7.00
2024-04-30T09:41:48.835Z,6.00
2024-04-30T09:42:51.026Z,6.50
2024-04-30T09:43:55.143Z,6.50
2024-04-30T09:44:56.873Z,7.00
2024-04-30T09:46:04.187Z,7.00
2024-04-30T09:47:05.997Z,6.75
2024-04-30T09:48:09.597Z,7.75
2024-04-30T09:49:14.135Z,6.00
2024-04-30T09:50:16.398Z,7.00
2024-04-30T09:51:19.450Z,7.00
2024-04-30T09:52:21.324Z,6.50
2024-04-30T09:53:25.591Z,6.00
2024-04-30T09:54:28.480Z,6.00
2024-04-30T09:55:30.159Z,8.00
2024-04-30T09:56:34.739Z,6.25
2024-04-30T09:57:36.561Z,6.50
2024-04-30T09:58:38.234Z,8.00
2024-04-30T09:59:39.948Z,5.75
2024-04-30T10:00:44.181Z,6.00
2024-04-30T10:01:48.515Z,7.50
2024-04-30T10:02:50.219Z,6.00
2024-04-30T10:03:51.889Z,6.75
2024-04-30T10:04:56.179Z,6.00
2024-04-30T10:05:58.183Z,6.00
2024-04-30T10:06:59.851Z,6.00
2024-04-30T10:08:04.669Z,5.50
2024-04-30T10:09:09.177Z,4.75
2024-04-30T10:10:10.767Z,6.25
2024-04-30T10:11:13.400Z,6.75
2024-04-30T10:12:25.140Z,6.00
2024-04-30T10:13:27.983Z,6.25
2024-04-30T10:14:29.719Z,7.00
2024-04-30T10:15:34.358Z,5.75
2024-04-30T10:16:36.343Z,6.75
2024-04-30T10:17:43.975Z,6.75
2024-04-30T10:18:48.242Z,6.00
2024-04-30T10:19:49.846Z,6.00
2024-04-30T10:20:51.429Z,6.00
2024-04-30T10:21:52.967Z,6.75
2024-04-30T10:22:57.117Z,6.50
2024-04-30T10:23:58.834Z,5.50
2024-04-30T10:25:00.412Z,6.25
2024-04-30T10:26:03.379Z,6.00
2024-04-30T10:27:07.770Z,6.00
2024-04-30T10:28:09.955Z,6.00
2024-04-30T10:29:12.133Z,6.50
2024-04-30T10:30:13.768Z,5.00
2024-04-30T10:31:20.359Z,6.75
2024-04-30T10:32:22.146Z,6.50
2024-04-30T10:33:27.750Z,5.75
2024-04-30T10:34:32.063Z,5.25
2024-04-30T10:35:40.226Z,7.00
2024-04-30T10:36:45.608Z,7.50
2024-04-30T10:37:49.779Z,6.75
2024-04-30T10:38:51.317Z,6.00
2024-04-30T10:39:53.985Z,5.50
2024-04-30T10:40:58.130Z,5.00
2024-04-30T10:41:59.682Z,7.00
2024-04-30T10:43:01.601Z,6.75
2024-04-30T10:44:06.096Z,6.25
2024-04-30T10:45:07.962Z,5.50
2024-04-30T10:46:10.232Z,5.75
2024-04-30T10:47:14.890Z,5.00
2024-04-30T10:48:17.109Z,6.00
2024-04-30T10:49:21.889Z,6.00
2024-04-30T10:50:30.872Z,4.50
2024-04-30T10:51:37.130Z,7.00
2024-04-30T10:52:39.400Z,4.25
2024-04-30T10:53:44.439Z,6.00
2024-04-30T10:54:46.015Z,7.00
2024-04-30T10:55:47.642Z,5.00
2024-04-30T10:56:51.802Z,5.75
2024-04-30T10:57:53.344Z,5.00
2024-04-30T10:58:55.116Z,6.00
2024-04-30T10:59:59.357Z,5.50
2024-04-30T11:01:04.075Z,5.00
2024-04-30T11:02:06.135Z,5.00
2024-04-30T11:03:12.338Z,5.00
2024-04-30T11:04:16.599Z,5.00
2024-04-30T11:05:21.077Z,6.00
2024-04-30T11:06:22.931Z,6.25
2024-04-30T11:07:24.529Z,5.00
2024-04-30T11:08:28.693Z,6.00
2024-04-30T11:09:30.286Z,6.00
2024-04-30T11:10:34.227Z,6.75
2024-04-30T11:11:54.772Z,5.00
2024-04-30T11:12:59.708Z,4.25
2024-04-30T11:14:01.362Z,6.00
2024-04-30T11:15:06.077Z,5.00
2024-04-30T11:16:15.549Z,5.00
2024-04-30T11:17:19.815Z,4.50
2024-04-30T11:18:21.502Z,5.50
2024-04-30T11:19:25.787Z,4.50
2024-04-30T11:20:30.222Z,5.50
2024-04-30T11:21:31.809Z,6.00
2024-04-30T11:22:33.525Z,6.00
2024-04-30T11:23:37.801Z,5.00
2024-04-30T11:24:39.360Z,5.25
2024-04-30T11:25:41.162Z,4.75
2024-04-30T11:26:43.293Z,4.75
2024-04-30T11:27:48.282Z,6.00
2024-04-30T11:29:03.719Z,5.75
2024-04-30T11:30:11.734Z,5.50
2024-04-30T11:31:13.384Z,4.75
2024-04-30T11:32:17.971Z,6.00
2024-04-30T11:33:19.677Z,6.00
2024-04-30T11:34:21.409Z,6.00
2024-04-30T11:35:29.158Z,5.50
2024-04-30T11:36:33.458Z,6.00
2024-04-30T11:37:35.453Z,6.00
2024-04-30T11:38:39.768Z,5.00
2024-04-30T11:39:41.456Z,5.50
2024-04-30T11:40:43.068Z,5.00
2024-04-30T11:41:49.124Z,6.00
2024-04-30T11:43:01.304Z,6.25
2024-04-30T11:44:02.919Z,8.25
2024-04-30T11:45:04.729Z,10.00
2024-04-30T11:46:08.952Z,9.00
2024-04-30T11:47:10.575Z,6.00
2024-04-30T11:48:12.216Z,6.25
2024-04-30T11:49:13.887Z,8.25
2024-04-30T11:50:18.147Z,9.00
2024-04-30T11:51:19.718Z,7.25
2024-04-30T11:52:23.917Z,6.00
2024-04-30T11:53:28.204Z,6.75
2024-04-30T11:54:29.972Z,5.75
2024-04-30T11:55:31.573Z,6.00
2024-04-30T11:56:33.227Z,5.25
2024-04-30T11:57:37.903Z,6.00
2024-04-30T11:58:39.523Z,6.00
2024-04-30T11:59:41.887Z,6.75
2024-04-30T12:00:46.263Z,5.00
2024-04-30T12:01:47.962Z,6.50
2024-04-30T12:02:49.616Z,7.25
2024-04-30T12:03:53.749Z,5.75
2024-04-30T12:04:55.412Z,5.75
2024-04-30T12:05:57.594Z,6.50
2024-04-30T12:06:59.169Z,7.00
2024-04-30T12:08:06.586Z,8.00
2024-04-30T12:09:08.233Z,7.00
2024-04-30T12:10:11.088Z,8.00
2024-04-30T12:11:12.865Z,7.00
2024-04-30T12:12:17.197Z,6.00
2024-04-30T12:13:19.707Z,8.00
2024-04-30T12:14:21.404Z,6.00
2024-04-30T12:15:25.578Z,5.50
2024-04-30T12:16:27.251Z,6.00
2024-04-30T12:17:29.171Z,5.50
2024-04-30T12:18:33.674Z,6.75
2024-04-30T12:19:36.593Z,6.50
2024-04-30T12:20:38.267Z,6.00
2024-04-30T12:21:44.201Z,5.75
2024-04-30T12:22:46.101Z,6.50
2024-04-30T12:23:50.288Z,7.00
2024-04-30T12:24:54.457Z,7.00
2024-04-30T12:25:56.072Z,6.50
2024-04-30T12:26:57.863Z,6.00
2024-04-30T12:27:59.465Z,6.00
2024-04-30T12:29:03.610Z,6.00
2024-04-30T12:30:05.510Z,6.25
2024-04-30T12:31:07.175Z,6.00
2024-04-30T12:32:11.995Z,5.50
2024-04-30T12:33:14.907Z,6.00
2024-04-30T12:34:16.585Z,6.50
2024-04-30T12:35:20.753Z,7.00
2024-04-30T12:36:22.432Z,6.50
2024-04-30T12:37:24.024Z,6.75
2024-04-30T12:38:25.591Z,6.00
2024-04-30T12:39:32.373Z,6.50
2024-04-30T12:40:34.000Z,6.25
2024-04-30T12:41:38.870Z,6.50
2024-04-30T12:42:43.212Z,6.25
2024-04-30T12:43:44.850Z,7.00
2024-04-30T12:44:46.468Z,6.50
2024-04-30T12:45:48.087Z,5.50
2024-04-30T12:46:52.400Z,6.00
2024-04-30T12:47:54.121Z,6.25
2024-04-30T12:48:55.756Z,6.00
2024-04-30T12:49:59.925Z,5.25
2024-04-30T12:51:01.533Z,6.00
2024-04-30T12:52:03.351Z,5.00
2024-04-30T12:53:05.017Z,4.25
2024-04-30T12:54:09.329Z,5.25
2024-04-30T12:55:13.661Z,5.50
2024-04-30T12:56:15.439Z,5.75
2024-04-30T12:57:17.106Z,7.25
2024-04-30T12:58:21.306Z,5.00
2024-04-30T12:59:22.860Z,6.00
2024-04-30T13:00:24.398Z,5.75
2024-04-30T13:01:26.582Z,5.00
2024-04-30T13:02:30.934Z,8.00
2024-04-30T13:03:32.566Z,4.25
2024-04-30T13:04:34.195Z,5.00
2024-04-30T13:05:36.323Z,5.50
2024-04-30T13:06:40.827Z,6.00
2024-04-30T13:07:42.493Z,5.50
2024-04-30T13:08:44.079Z,6.00
2024-04-30T13:09:48.393Z,4.75
2024-04-30T13:10:52.862Z,5.25
2024-04-30T13:11:54.565Z,5.00
2024-04-30T13:12:58.786Z,5.00
2024-04-30T13:14:00.414Z,6.00
2024-04-30T13:15:02.025Z,5.25
2024-04-30T13:16:03.749Z,5.00
2024-04-30T13:17:08.190Z,4.75
2024-04-30T13:18:09.855Z,6.25
2024-04-30T13:19:11.710Z,5.75
2024-04-30T13:20:16.114Z,5.00
2024-04-30T13:21:17.685Z,5.00
2024-04-30T13:22:19.233Z,5.75
2024-04-30T13:23:23.410Z,6.00
2024-04-30T13:24:25.109Z,5.00
2024-04-30T13:25:26.751Z,4.50
2024-04-30T13:26:33.490Z,6.25
2024-04-30T13:27:35.054Z,6.00
2024-04-30T13:28:36.760Z,5.50
2024-04-30T13:29:40.798Z,5.50
2024-04-30T13:30:45.111Z,5.00
2024-04-30T13:31:46.909Z,4.00
2024-04-30T13:32:48.713Z,4.75
2024-04-30T13:33:53.064Z,6.00
2024-04-30T13:34:54.684Z,6.00
2024-04-30T13:35:56.409Z,6.00
2024-04-30T13:37:00.987Z,5.75
2024-04-30T13:38:02.554Z,3.50
2024-04-30T13:39:04.281Z,6.00
2024-04-30T13:40:06.669Z,6.00
2024-04-30T13:41:10.924Z,5.00
2024-04-30T13:42:15.107Z,4.50
2024-04-30T13:43:16.829Z,4.75
2024-04-30T13:44:21.230Z,7.25
2024-04-30T13:45:23.104Z,6.00
2024-04-30T13:46:24.805Z,5.00
2024-04-30T13:47:29.082Z,5.50
2024-04-30T13:48:30.802Z,6.00